Main page
METAR-TAF:

METAR-TAF

Airports :

Sonora Municipal Airport

Sonora, Texas, United States

latitude: 30-35-08N, longitude: 100-38-54W, elevation: 2139 ft

METAR: missing

Time: 09:08 (14:08 UTC)

Forecast

The report was made 2 hours and 39 minutes ago, at 11:29 UTC
Forecast valid from 17 at 12 UTC to 18 at 12 UTC
Wind 14 mph from the South with gusts up to 23 mph
Visibility: 6 miles
Broken clouds at a height of 2200 ft
From 17 at 1500 UTC
Wind 14 mph from the South with gusts up to 24 mph
Visibility: 6 miles
Scattered clouds at a height of 2200 ft
From 18 at 0400 UTC
Wind 22 mph from the Southeast with gusts up to 32 mph
Visibility: 6 miles
Few clouds at a height of 25000 ft
From 18 at 1100 UTC
Wind 17 mph from the South with gusts up to 26 mph
Visibility: 6 miles
Broken clouds at a height of 2200 ft

TAF: KSOA 171129Z 1712/1812 17012G20KT P6SM BKN022 FM171500 17012G21KT P6SM SCT022 FM180400 14019G28KT P6SM FEW250 FM181100 17015G23KT P6SM BKN022 AMD NOT SKED

Weather observations and forecasts of more than 4000 airports (METAR and TAF reports).

The available stations are represented by yellow and red dots on the map.

Hover mouse over dot to see the name of the station.

Then click to see weather observations and forecasts.

To change the map : click on the green buttons with a black cross to zoom in, on the green button with a dash to zoom out, or on the green arrows for adjacent maps.


METAR-TAF: